Terminal Aerodrome Forecast
Issued by NWS Duluth, MN

Home | Current Version | Previous Version | Text Only | Print | Product List | Glossary On
Versions: 1 2 3 4 5 6 7 8 9 10 11 12 13 14 15 16 17 18 19 20 21 22 23 24 25 26 27
000
FTUS43 KDLH 161300 AAA
TAFDLH
TAF AMD
KDLH 161357Z 1614/1712 35015G22KT P6SM -SN OVC010
      TEMPO 1614/1616 5SM -SN OVC015
     FM161600 33012G18KT P6SM VCSH OVC020
      TEMPO 1616/1618 OVC035
     FM161900 31010G16KT 5SM -SN BKN012 OVC028
     FM170000 30011KT P6SM VCSH OVC025=

USA.gov is the U.S. government's official web portal to all federal, state and local government web resources and services.